createdAt,value
2016-12-12T13:04:54.688Z,-40
2016-12-12T13:05:35.132Z,-39.49
2016-12-12T13:07:20.932Z,-40
2016-12-12T13:09:31.144Z,-40
2016-12-12T13:10:11.594Z,-39.49
2016-12-12T13:10:52.041Z,-39.49
2016-12-12T13:11:32.510Z,-39.49
2016-12-12T13:13:50.554Z,-40
2016-12-12T13:15:43.686Z,-40
2016-12-12T13:16:24.097Z,-39.49
2016-12-12T13:20:10.265Z,-40
2016-12-12T13:20:50.697Z,-39.49
2016-12-12T13:22:23.090Z,-40
2016-12-12T13:24:10.726Z,-40
2016-12-12T13:24:51.152Z,-39.49
2016-12-12T13:27:03.644Z,-40
2016-12-12T13:27:44.082Z,-39.49
2016-12-12T15:00:45.697Z,24.13
2016-12-12T15:01:26.179Z,24.13
2016-12-12T15:03:16.620Z,24.13
2016-12-12T15:03:30.095Z,24.13
2016-12-12T15:03:43.597Z,24.13
2016-12-12T15:03:57.083Z,24.17
2016-12-12T15:05:18.379Z,24.1
2016-12-12T15:05:51.859Z,24.13
2016-12-12T15:07:53.548Z,24.16
2016-12-12T15:10:45.918Z,24.14
2016-12-12T15:11:19.926Z,24.28
2016-12-12T15:11:53.402Z,24.18
2016-12-12T15:12:26.869Z,24.26
2016-12-12T15:13:00.349Z,24.24
2016-12-12T15:13:33.823Z,24.3
2016-12-12T15:14:07.318Z,24.32
2016-12-12T15:14:40.794Z,24.29
2016-12-12T15:15:14.268Z,24.23
2016-12-12T15:15:47.738Z,24.3
2016-12-12T15:16:21.211Z,24.24
2016-12-12T15:16:54.675Z,24.28
2016-12-12T15:17:28.158Z,24.21
2016-12-12T15:18:02.209Z,24.23
2016-12-12T15:19:30.208Z,24.24
2016-12-12T15:20:03.681Z,24.32
2016-12-12T15:20:37.166Z,24.24
2016-12-12T15:21:10.648Z,24.28
2016-12-12T15:21:44.124Z,24.29
2016-12-12T15:22:17.607Z,24.35
2016-12-12T15:22:51.093Z,24.23
2016-12-12T15:23:24.579Z,24.24
2016-12-12T15:23:58.068Z,24.33
2016-12-12T15:24:31.548Z,24.32
2016-12-12T15:25:05.027Z,24.29
2016-12-12T15:25:38.492Z,24.28
2016-12-12T15:26:13.239Z,24.26
2016-12-12T15:26:46.210Z,24.32
2016-12-12T15:27:19.691Z,24.24
2016-12-12T15:27:53.174Z,24.29
2016-12-12T15:28:26.650Z,24.32
2016-12-12T15:29:00.118Z,24.3
2016-12-12T15:29:33.581Z,24.35
2016-12-12T15:30:07.047Z,24.23
2016-12-12T15:30:40.520Z,24.32
2016-12-12T15:31:13.989Z,24.32
2016-12-12T15:31:47.464Z,24.38
2016-12-12T15:32:59.075Z,24.4
2016-12-12T15:33:32.536Z,24.45
2016-12-12T15:34:06.012Z,24.38
2016-12-12T15:34:39.502Z,24.43
2016-12-12T15:35:12.981Z,24.42
2016-12-12T15:35:46.457Z,24.4
2016-12-12T15:36:19.945Z,24.35
2016-12-12T15:36:53.419Z,24.4
2016-12-12T15:37:26.894Z,24.38
2016-12-12T15:38:00.353Z,24.36
2016-12-12T15:38:33.827Z,24.4
2016-12-12T15:39:07.306Z,24.38
2016-12-12T15:39:40.770Z,24.42
2016-12-12T15:40:14.241Z,24.42
2016-12-12T15:40:47.719Z,24.38
2016-12-12T15:41:21.190Z,24.39
2016-12-12T15:41:54.679Z,24.42
2016-12-12T15:42:28.151Z,24.33
2016-12-12T15:43:01.631Z,24.35
2016-12-12T15:43:35.107Z,24.29
2016-12-12T15:44:08.592Z,24.39
2016-12-12T15:44:42.071Z,24.33
2016-12-12T15:45:15.536Z,24.45
2016-12-12T15:45:49.012Z,24.39
2016-12-12T15:46:22.481Z,24.39
2016-12-12T15:46:55.956Z,24.29
2016-12-12T15:47:29.433Z,24.3
2016-12-12T15:48:02.919Z,24.29
2016-12-12T15:48:36.385Z,24.29
2016-12-12T15:49:09.852Z,24.23
2016-12-12T15:49:43.314Z,24.11
2016-12-12T15:50:16.797Z,24.23
2016-12-12T15:50:50.269Z,24.17
2016-12-12T15:51:23.759Z,24.14
2016-12-12T15:51:57.230Z,24.18
2016-12-12T15:52:30.716Z,24.17
2016-12-12T15:53:04.195Z,24.1
2016-12-12T15:53:37.678Z,24.17
2016-12-12T15:54:11.157Z,24.16
2016-12-12T15:54:44.635Z,24.13
2016-12-12T15:55:18.106Z,24.11
2016-12-12T15:55:51.571Z,24.14
2016-12-12T15:56:25.053Z,24.18
2016-12-12T15:56:58.538Z,24.21
2016-12-12T15:57:32.018Z,24.11
2016-12-12T15:58:05.489Z,23.99
2016-12-12T15:58:38.955Z,24.16
2016-12-12T15:59:12.430Z,24.14
2016-12-12T15:59:45.904Z,24.05
2016-12-12T16:00:19.382Z,24.11
2016-12-12T16:00:52.857Z,24.1
2016-12-12T16:01:26.316Z,24.13
2016-12-12T16:01:59.792Z,24.13
2016-12-12T16:02:33.259Z,24.06
2016-12-12T16:03:06.721Z,24.01
2016-12-12T16:03:40.202Z,23.96
2016-12-12T16:04:13.678Z,24.11
2016-12-12T16:04:47.163Z,24.1
2016-12-12T16:05:20.649Z,24.02
2016-12-12T16:05:54.125Z,24.06
2016-12-12T16:06:27.612Z,23.99
2016-12-12T16:07:01.081Z,24.01
2016-12-12T16:07:34.544Z,24.01
2016-12-12T16:08:08.023Z,23.98
2016-12-12T16:08:41.489Z,24.01
2016-12-12T16:09:14.953Z,24.01
2016-12-12T16:09:48.431Z,23.98
2016-12-12T16:10:21.927Z,23.96
2016-12-12T16:10:55.406Z,23.96
2016-12-12T16:11:28.887Z,23.96
2016-12-12T16:12:02.367Z,23.99
2016-12-12T16:12:35.850Z,23.93
2016-12-12T16:13:09.326Z,23.96
2016-12-12T16:13:42.799Z,23.92
2016-12-12T16:14:16.273Z,23.99
2016-12-12T16:14:49.743Z,23.96
2016-12-12T16:15:23.205Z,24.03
2016-12-12T16:15:56.679Z,23.96
2016-12-12T16:17:58.378Z,23.96
2016-12-12T16:18:31.849Z,23.91
2016-12-12T16:19:05.311Z,23.99
2016-12-12T16:19:38.788Z,23.99
2016-12-12T16:20:12.254Z,23.95
2016-12-12T16:20:45.730Z,23.98
2016-12-12T16:21:19.199Z,23.91
2016-12-12T16:21:52.672Z,23.88
2016-12-12T16:22:26.141Z,23.91
2016-12-12T16:22:59.602Z,23.93
2016-12-12T16:23:33.077Z,23.86
2016-12-12T16:24:06.544Z,23.81
2016-12-12T16:24:40.022Z,23.88
2016-12-12T16:25:13.500Z,23.83
2016-12-12T16:25:46.970Z,23.77
2016-12-12T16:26:20.437Z,23.92
2016-12-12T16:26:53.914Z,23.87
2016-12-12T16:27:27.378Z,23.93
2016-12-12T16:28:00.839Z,24.11
2016-12-12T16:28:34.314Z,24.18
2016-12-12T16:29:07.791Z,24.28
2016-12-12T16:29:41.261Z,24.29
2016-12-12T16:30:14.725Z,24.3
2016-12-12T16:30:48.197Z,24.26
2016-12-12T16:31:21.670Z,24.24
2016-12-12T16:31:55.129Z,24.21
2016-12-12T16:32:28.609Z,24.14
2016-12-12T16:33:02.090Z,24.11
2016-12-12T16:33:35.555Z,24.13
2016-12-12T16:34:09.020Z,24.13
2016-12-12T16:34:42.499Z,24.06
2016-12-12T16:35:15.966Z,24.16
2016-12-12T16:35:49.447Z,24.14
2016-12-12T16:36:22.920Z,24.14
2016-12-12T16:36:56.389Z,24.11
2016-12-12T16:37:29.867Z,24.13
2016-12-12T16:38:03.350Z,24.03
2016-12-12T16:38:36.829Z,24.06
2016-12-12T16:39:10.300Z,24.03
2016-12-12T16:39:43.770Z,24.03
2016-12-12T16:40:17.245Z,24.02
2016-12-12T16:40:50.709Z,23.98
2016-12-12T16:42:20.061Z,23.98
2016-12-12T16:42:53.527Z,24.02
2016-12-12T16:43:26.993Z,23.92
2016-12-12T16:44:00.456Z,23.86
2016-12-12T16:44:33.931Z,23.87
2016-12-12T16:45:07.395Z,23.93
2016-12-12T16:45:40.875Z,23.99
2016-12-12T16:46:14.353Z,23.98
2016-12-12T16:46:47.822Z,23.91
2016-12-12T16:47:21.290Z,23.8
2016-12-12T16:47:54.766Z,23.81
2016-12-12T16:48:28.231Z,23.88
2016-12-12T16:49:01.693Z,23.93
2016-12-12T16:49:35.176Z,23.91
2016-12-12T16:50:08.654Z,23.91
2016-12-12T16:50:42.128Z,23.91
2016-12-12T16:51:15.599Z,23.78
2016-12-12T16:53:17.620Z,23.87
2016-12-12T16:53:51.074Z,23.83
2016-12-12T16:54:24.551Z,23.8
2016-12-12T16:54:58.029Z,23.8
2016-12-12T16:55:31.498Z,23.81
2016-12-12T16:56:04.963Z,23.74
2016-12-12T16:56:38.440Z,23.8
2016-12-12T16:57:11.905Z,23.8
2016-12-12T16:57:45.369Z,23.84
2016-12-12T16:58:18.845Z,23.8
2016-12-12T16:58:52.327Z,23.69
2016-12-12T16:59:25.804Z,23.69
2016-12-12T16:59:59.272Z,23.76
2016-12-12T17:00:32.743Z,23.78
2016-12-12T17:01:06.220Z,23.83
2016-12-12T17:01:39.685Z,23.69
2016-12-12T17:02:13.155Z,23.77
2016-12-12T17:02:46.629Z,23.8
2016-12-12T17:03:20.109Z,23.83
2016-12-12T17:03:53.587Z,23.77
2016-12-12T17:04:27.065Z,23.74
2016-12-12T17:05:00.534Z,23.74
2016-12-12T17:05:34.001Z,23.74
2016-12-12T17:06:07.477Z,23.74
2016-12-12T17:06:40.943Z,23.73
2016-12-12T17:07:14.404Z,23.68
2016-12-12T17:07:47.887Z,23.68
2016-12-12T17:08:21.369Z,23.74
2016-12-12T17:08:54.852Z,23.73
2016-12-12T17:09:28.333Z,23.73
2016-12-12T17:10:01.800Z,23.76
2016-12-12T17:10:35.269Z,23.71
2016-12-12T17:11:08.741Z,23.68
2016-12-12T17:11:42.206Z,23.71
2016-12-12T17:12:15.679Z,23.69
2016-12-12T17:12:49.150Z,23.69
2016-12-12T17:13:22.631Z,23.66
2016-12-12T17:13:56.113Z,23.65
2016-12-12T17:14:29.596Z,23.71
2016-12-12T17:15:03.072Z,23.65
2016-12-12T17:15:36.543Z,23.73
2016-12-12T17:16:10.011Z,23.71
2016-12-12T17:16:43.490Z,23.69
2016-12-12T17:17:16.951Z,23.73
2016-12-12T17:17:50.435Z,23.65
2016-12-12T17:18:23.911Z,23.59
2016-12-12T17:18:57.377Z,23.59
2016-12-12T17:19:30.860Z,23.62
2016-12-12T17:20:04.342Z,23.63
2016-12-12T17:20:37.819Z,23.58
2016-12-12T17:21:11.288Z,23.61
2016-12-12T17:21:44.756Z,23.56
2016-12-12T17:22:18.235Z,23.58
2016-12-12T17:22:51.702Z,23.54
2016-12-12T17:23:25.182Z,23.58
2016-12-12T17:23:58.646Z,23.55
2016-12-12T17:24:32.124Z,23.5
2016-12-12T17:25:05.614Z,23.56
2016-12-12T17:25:39.088Z,23.54
2016-12-12T17:26:12.566Z,23.5
2016-12-12T17:26:46.036Z,23.47
2016-12-12T17:27:19.512Z,23.54
2016-12-12T17:27:52.981Z,23.5
2016-12-12T17:28:26.443Z,23.55
2016-12-12T17:28:59.927Z,23.51
2016-12-12T17:29:33.402Z,23.47
2016-12-12T17:30:06.873Z,23.41
2016-12-12T17:30:40.341Z,23.51
2016-12-12T17:31:13.811Z,23.48
2016-12-12T17:31:47.278Z,23.51
2016-12-12T17:32:20.759Z,23.51
2016-12-12T17:32:54.219Z,23.5
2016-12-12T17:33:27.694Z,23.44
2016-12-12T17:34:01.162Z,23.48
2016-12-12T17:34:34.643Z,23.54
2016-12-12T17:35:08.128Z,23.46
2016-12-12T17:35:41.611Z,23.44
2016-12-12T17:36:15.098Z,23.47
2016-12-12T17:36:48.578Z,23.5
2016-12-12T17:37:22.063Z,23.5
2016-12-12T17:37:55.541Z,23.58
2016-12-12T17:38:29.009Z,23.54
2016-12-12T17:39:02.479Z,23.47
2016-12-12T17:39:35.959Z,23.58
2016-12-12T17:40:09.420Z,23.51
2016-12-12T17:40:42.895Z,23.5
2016-12-12T17:41:16.385Z,23.48
2016-12-12T17:41:49.849Z,23.56
2016-12-12T17:42:23.325Z,23.46
2016-12-12T17:42:56.809Z,23.51
2016-12-12T17:43:30.286Z,23.5
2016-12-12T17:44:03.757Z,23.59
2016-12-12T17:44:37.237Z,23.55
2016-12-12T17:45:10.704Z,23.5
2016-12-12T17:45:44.165Z,23.58
2016-12-12T17:46:17.650Z,23.55
2016-12-12T17:46:51.112Z,23.5
2016-12-12T17:47:24.589Z,23.48
2016-12-12T17:47:58.073Z,23.5
2016-12-12T17:48:31.555Z,23.48
2016-12-12T17:49:05.043Z,23.5
2016-12-12T17:49:38.533Z,23.48
2016-12-12T17:50:12.013Z,23.43
2016-12-12T17:50:45.497Z,23.48
2016-12-12T17:51:18.982Z,23.46
2016-12-12T17:51:52.455Z,23.46
2016-12-12T17:52:25.924Z,23.54
2016-12-12T17:52:59.388Z,23.47
2016-12-12T17:53:32.854Z,23.48
2016-12-12T17:54:06.334Z,23.44
2016-12-12T17:54:39.794Z,23.47
2016-12-12T17:55:13.272Z,23.44
2016-12-12T17:55:46.754Z,23.43
2016-12-12T17:56:20.232Z,23.47
2016-12-12T17:56:53.702Z,23.46
2016-12-12T17:57:27.172Z,23.54
2016-12-12T17:58:00.649Z,23.46
2016-12-12T17:58:34.115Z,23.48
2016-12-12T17:59:07.585Z,23.46
2016-12-12T17:59:41.056Z,23.48
2016-12-12T18:00:14.530Z,23.36
2016-12-12T18:00:48.008Z,23.43
2016-12-12T18:01:21.477Z,23.37
2016-12-12T18:01:54.948Z,23.39
2016-12-12T18:02:28.425Z,23.37
2016-12-12T18:03:01.887Z,23.39
2016-12-12T18:03:35.361Z,23.32
2016-12-12T18:04:08.832Z,23.4
2016-12-12T18:04:42.307Z,23.36
2016-12-12T18:05:15.786Z,23.34
2016-12-12T18:05:49.254Z,23.47
2016-12-12T18:06:22.719Z,23.41
2016-12-12T18:06:56.196Z,23.31
2016-12-12T18:07:29.662Z,23.31
2016-12-12T18:08:03.123Z,23.32
2016-12-12T18:08:36.607Z,23.4
2016-12-12T18:09:10.076Z,23.34
2016-12-12T18:09:43.547Z,23.39
2016-12-12T18:10:17.016Z,23.34
2016-12-12T18:10:50.492Z,23.36
2016-12-12T18:11:23.954Z,23.34
2016-12-12T18:11:57.424Z,23.37
2016-12-12T18:12:30.900Z,23.34
2016-12-12T18:13:04.379Z,23.31
2016-12-12T18:13:37.862Z,23.4
2016-12-12T18:14:11.337Z,23.34
2016-12-12T18:14:44.808Z,23.28
2016-12-12T18:15:18.276Z,23.36
2016-12-12T18:15:51.753Z,23.37
2016-12-12T18:16:25.216Z,23.25
2016-12-12T18:16:58.700Z,23.28
2016-12-12T18:17:32.161Z,23.28
2016-12-12T18:18:05.639Z,23.32
2016-12-12T18:18:39.123Z,23.32
2016-12-12T18:19:12.598Z,23.27
2016-12-12T18:19:46.067Z,23.34
2016-12-12T18:20:19.538Z,23.31
2016-12-12T18:20:53.012Z,23.28
2016-12-12T18:21:26.477Z,23.24
2016-12-12T18:21:59.960Z,23.32
2016-12-12T18:22:33.435Z,23.34
2016-12-12T18:23:06.902Z,23.23
2016-12-12T18:23:40.382Z,23.32
2016-12-12T18:24:13.867Z,23.34
2016-12-12T18:24:47.345Z,23.27
2016-12-12T18:25:20.813Z,23.27
2016-12-12T18:25:54.277Z,23.23
2016-12-12T18:26:27.757Z,23.18
2016-12-12T18:27:01.221Z,23.15
2016-12-12T18:27:34.696Z,23.25
2016-12-12T18:28:08.167Z,23.24
2016-12-12T18:28:41.641Z,23.24
2016-12-12T18:29:15.119Z,23.18
2016-12-12T18:29:48.589Z,23.15
2016-12-12T18:30:22.059Z,23.2
2016-12-12T18:30:55.536Z,23.21
2016-12-12T18:31:28.999Z,23.15
2016-12-12T18:32:02.482Z,23.18
2016-12-12T18:32:35.957Z,23.2
2016-12-12T18:33:09.424Z,23.15
2016-12-12T18:33:42.902Z,23.18
2016-12-12T18:34:16.387Z,23.12
2016-12-12T18:34:49.865Z,23.17
2016-12-12T18:35:23.333Z,23.2
2016-12-12T18:35:56.798Z,23.2
2016-12-12T18:36:30.261Z,23.18
2016-12-12T18:37:03.744Z,23.12
2016-12-12T18:37:37.207Z,23.12
2016-12-12T18:38:10.683Z,23.12
2016-12-12T18:38:44.164Z,23.18
2016-12-12T18:39:17.642Z,23.15
2016-12-12T18:39:51.112Z,23.15
2016-12-12T18:40:24.582Z,23.12
2016-12-12T18:40:58.058Z,23.1
2016-12-12T18:41:31.520Z,23.2
2016-12-12T18:42:04.993Z,23.15
2016-12-12T18:42:38.464Z,23.12
2016-12-12T18:43:11.942Z,23.12
2016-12-12T18:43:45.427Z,23.17
2016-12-12T18:44:18.913Z,23.17
2016-12-12T18:44:52.397Z,23.27
2016-12-12T18:45:25.880Z,23.13
2016-12-12T18:45:59.358Z,23.08
2016-12-12T18:46:32.826Z,23.15
2016-12-12T18:47:06.296Z,23.2
2016-12-12T18:47:39.774Z,23.15
2016-12-12T18:48:13.237Z,23.15
2016-12-12T18:48:46.706Z,23.21
2016-12-12T18:49:20.181Z,23.12
2016-12-12T18:49:53.658Z,23.17
2016-12-12T18:50:27.140Z,23.13
2016-12-12T18:51:00.618Z,23.08
2016-12-12T18:51:34.089Z,23.1
2016-12-12T18:52:07.560Z,23.17
2016-12-12T18:52:41.036Z,23.05
2016-12-12T18:53:14.497Z,23.13
2016-12-12T18:53:47.970Z,23.12
2016-12-12T18:54:21.441Z,23.18
2016-12-12T18:54:54.917Z,23.2
2016-12-12T18:55:28.395Z,23.12
2016-12-12T18:56:01.865Z,23.13
2016-12-12T18:56:35.327Z,23.18
2016-12-12T18:57:08.789Z,23.15
2016-12-12T18:57:42.262Z,23.15
2016-12-12T18:58:15.733Z,23.12
2016-12-12T18:58:49.210Z,23.12
2016-12-12T18:59:22.687Z,23.21
2016-12-12T18:59:56.155Z,23.1
2016-12-12T19:00:29.627Z,23.08
2016-12-12T19:01:03.103Z,23.06
2016-12-12T19:01:36.564Z,23.08
2016-12-12T19:02:10.043Z,23.18
2016-12-12T19:02:43.511Z,23.1
2016-12-12T19:03:16.987Z,23.17
2016-12-12T19:03:50.473Z,23.02
2016-12-12T19:04:23.954Z,23.17
2016-12-12T19:04:57.431Z,23.17
2016-12-12T19:05:30.902Z,23.1
2016-12-12T19:06:04.365Z,23.09
2016-12-12T19:06:37.827Z,23.05
2016-12-12T19:07:11.310Z,23.05
2016-12-12T19:07:44.776Z,23.05
2016-12-12T19:08:18.250Z,23.09
2016-12-12T19:08:51.731Z,23.15
2016-12-12T19:09:25.206Z,23.2
2016-12-12T19:09:58.678Z,23.17
2016-12-12T19:10:32.146Z,23.12
2016-12-12T19:11:05.624Z,23.17
2016-12-12T19:11:39.088Z,23.09
2016-12-12T19:12:12.562Z,23.12
2016-12-12T19:12:46.032Z,23.12
2016-12-12T19:13:19.506Z,23.1
2016-12-12T19:13:52.985Z,23.05
2016-12-12T19:14:26.456Z,23.05
2016-12-12T19:14:59.924Z,23.08
2016-12-12T19:15:33.402Z,23.08
2016-12-12T19:16:06.864Z,23.03
2016-12-12T19:16:40.338Z,23.1
2016-12-12T19:17:13.808Z,23.06
2016-12-12T19:17:47.285Z,23.06
2016-12-12T19:18:20.768Z,23.08
2016-12-12T19:18:54.244Z,23.1
2016-12-12T19:19:27.715Z,23.15
2016-12-12T19:20:01.185Z,23.17
2016-12-12T19:20:34.662Z,22.99
2016-12-12T19:21:08.129Z,23.1
2016-12-12T19:21:41.608Z,23.1
2016-12-12T19:22:15.070Z,23.06
2016-12-12T19:22:48.547Z,23.08
2016-12-12T19:23:22.032Z,23.1
2016-12-12T19:23:55.507Z,23.08
2016-12-12T19:24:28.976Z,23.06
2016-12-12T19:25:02.440Z,23.05
2016-12-12T19:25:35.901Z,23.1
2016-12-12T19:26:09.375Z,23.08
2016-12-12T19:26:42.846Z,23.09
2016-12-12T19:27:16.323Z,23.05
2016-12-12T19:27:49.797Z,23.12
2016-12-12T19:28:23.267Z,23
2016-12-12T19:28:56.737Z,22.96
2016-12-12T19:29:30.215Z,23.03
2016-12-12T19:30:03.678Z,23.08
2016-12-12T19:30:37.162Z,23.02
2016-12-12T19:31:10.625Z,23.03
2016-12-12T19:31:44.098Z,23.05
2016-12-12T19:32:18.152Z,23.05
2016-12-12T19:33:45.794Z,23.06
2016-12-12T19:34:19.267Z,23.03
2016-12-12T19:34:52.726Z,23.05
2016-12-12T19:35:26.204Z,23.03
2016-12-12T19:35:59.680Z,23.06
2016-12-12T19:36:33.149Z,23.02
2016-12-12T19:37:06.615Z,23.05
2016-12-12T19:37:40.091Z,23.02
2016-12-12T19:38:13.558Z,22.96
2016-12-12T19:38:47.019Z,22.98
2016-12-12T19:39:20.496Z,23.03
2016-12-12T19:39:53.971Z,23.09
2016-12-12T19:40:27.443Z,23.06
2016-12-12T19:41:00.912Z,22.94
2016-12-12T19:41:34.387Z,22.99
2016-12-12T19:42:07.850Z,23.03
2016-12-12T19:42:41.327Z,23.05
2016-12-12T19:43:14.794Z,23.03
2016-12-12T19:43:48.272Z,22.99
2016-12-12T19:44:21.755Z,22.99
2016-12-12T19:44:55.233Z,23.02
2016-12-12T19:45:28.703Z,22.93
2016-12-12T19:46:02.168Z,23.03
2016-12-12T19:46:35.649Z,22.96
2016-12-12T19:47:09.111Z,23
2016-12-12T19:47:42.586Z,22.98
2016-12-12T19:48:16.056Z,23.06
2016-12-12T19:48:49.535Z,22.94
2016-12-12T19:49:23.018Z,22.87
2016-12-12T19:49:56.500Z,22.9
2016-12-12T19:50:29.979Z,23.03
2016-12-12T19:51:03.448Z,22.98
2016-12-12T19:51:36.916Z,22.9
2016-12-12T19:52:10.394Z,22.99
2016-12-12T19:52:43.857Z,22.87
2016-12-12T19:53:17.332Z,22.91
2016-12-12T19:53:50.802Z,22.98
2016-12-12T19:54:24.280Z,23.02
2016-12-12T19:54:57.762Z,23
2016-12-12T19:55:31.240Z,22.94
2016-12-12T19:56:04.709Z,22.91
2016-12-12T19:56:38.180Z,22.87
2016-12-12T19:57:11.656Z,22.94
2016-12-12T19:57:45.119Z,22.9
2016-12-12T19:58:18.593Z,22.96
2016-12-12T19:58:52.063Z,22.83
2016-12-12T19:59:25.541Z,22.93
2016-12-12T19:59:59.016Z,22.87
2016-12-12T20:00:32.487Z,22.87
2016-12-12T20:01:05.957Z,22.93
2016-12-12T20:01:39.433Z,22.87
2016-12-12T20:02:12.895Z,22.93
2016-12-12T20:02:46.370Z,22.87
2016-12-12T20:03:19.838Z,22.94
2016-12-12T20:03:53.319Z,22.91
2016-12-12T20:04:26.799Z,22.94
2016-12-12T20:05:00.276Z,23.05
2016-12-12T20:05:33.746Z,22.85
2016-12-12T20:06:07.217Z,22.9
2016-12-12T20:06:40.693Z,22.87
2016-12-12T20:07:14.158Z,22.85
2016-12-12T20:07:47.639Z,22.78
2016-12-12T20:08:21.102Z,22.84
2016-12-12T20:08:54.576Z,22.9
2016-12-12T20:09:28.053Z,22.88
2016-12-12T20:10:01.522Z,22.93
2016-12-12T20:10:34.989Z,22.9
2016-12-12T20:11:08.469Z,22.81
2016-12-12T20:11:41.933Z,22.87
2016-12-12T20:12:15.404Z,22.88
2016-12-12T20:12:48.876Z,22.76
2016-12-12T20:13:22.356Z,22.83
2016-12-12T20:13:55.837Z,22.87
2016-12-12T20:14:29.315Z,22.91
2016-12-12T20:15:02.786Z,22.87
2016-12-12T20:15:36.254Z,22.85
2016-12-12T20:16:09.732Z,22.93
2016-12-12T20:16:43.193Z,22.88
2016-12-12T20:17:16.667Z,22.8
2016-12-12T20:17:50.138Z,22.81
2016-12-12T20:18:23.612Z,22.81
2016-12-12T20:18:57.098Z,22.87
2016-12-12T20:19:30.567Z,22.81
2016-12-12T20:20:04.034Z,22.85
2016-12-12T20:20:37.512Z,22.88
2016-12-12T20:21:10.988Z,22.76
2016-12-12T20:21:44.455Z,22.83
2016-12-12T20:22:17.918Z,22.83
2016-12-12T20:22:51.395Z,22.88
2016-12-12T20:23:24.876Z,22.9
2016-12-12T20:23:58.362Z,22.9
2016-12-12T20:24:31.845Z,22.9
2016-12-12T20:25:05.321Z,22.8
2016-12-12T20:25:38.791Z,22.81
2016-12-12T20:26:12.257Z,22.8
2016-12-12T20:26:45.731Z,22.85
2016-12-12T20:27:19.200Z,22.91
2016-12-12T20:27:52.662Z,22.81
2016-12-12T20:28:26.140Z,22.9
2016-12-12T20:28:59.620Z,22.81
2016-12-12T20:29:33.096Z,22.8
2016-12-12T20:30:06.566Z,22.81
2016-12-12T20:30:40.035Z,22.8
2016-12-12T20:31:13.513Z,22.84
2016-12-12T20:31:46.977Z,22.75
2016-12-12T20:32:20.460Z,22.8
2016-12-12T20:32:53.922Z,22.87
2016-12-12T20:33:27.402Z,22.78
2016-12-12T20:34:00.882Z,22.81
2016-12-12T20:34:34.358Z,22.78
2016-12-12T20:35:07.843Z,22.69
2016-12-12T20:35:41.314Z,22.81
2016-12-12T20:36:14.775Z,22.81
2016-12-12T20:36:48.237Z,22.83
2016-12-12T20:37:21.712Z,22.78
2016-12-12T20:37:55.180Z,22.81
2016-12-12T20:38:28.658Z,22.76
2016-12-12T20:39:02.135Z,22.8
2016-12-12T20:39:35.605Z,22.81
2016-12-12T20:40:09.075Z,22.76
2016-12-12T20:40:42.552Z,22.8
2016-12-12T20:41:16.013Z,22.83
2016-12-12T20:41:49.489Z,22.8
2016-12-12T20:42:22.959Z,22.75
2016-12-12T20:42:56.435Z,22.78
2016-12-12T20:43:29.918Z,22.8
2016-12-12T20:44:03.395Z,22.81
2016-12-12T20:44:36.867Z,22.78
2016-12-12T20:45:10.330Z,22.81
2016-12-12T20:45:43.807Z,22.83
2016-12-12T20:46:17.273Z,22.84
2016-12-12T20:46:50.744Z,22.76
2016-12-12T20:47:24.218Z,22.8
2016-12-12T20:47:57.694Z,22.78
2016-12-12T20:48:31.171Z,22.83
2016-12-12T20:49:04.641Z,22.8
2016-12-12T20:49:38.113Z,22.8
2016-12-12T20:50:11.588Z,22.72
2016-12-12T20:50:45.050Z,22.76
2016-12-12T20:51:18.523Z,22.7
2016-12-12T20:51:51.995Z,22.7
2016-12-12T20:52:25.474Z,22.76
2016-12-12T20:52:58.957Z,22.83
2016-12-12T20:53:32.432Z,22.68
2016-12-12T20:54:05.900Z,22.66
2016-12-12T20:54:39.369Z,22.76
2016-12-12T20:55:12.849Z,22.76
2016-12-12T20:55:46.311Z,22.73
2016-12-12T20:56:19.786Z,22.69
2016-12-12T20:56:53.257Z,22.66
2016-12-12T20:57:26.733Z,22.76
2016-12-12T20:58:00.209Z,22.69
2016-12-12T20:58:33.679Z,22.75
2016-12-12T20:59:07.147Z,22.68
2016-12-12T20:59:40.624Z,22.76
2016-12-12T21:00:14.087Z,22.69
2016-12-12T21:00:47.561Z,22.73
2016-12-12T21:01:21.033Z,22.76
2016-12-12T21:01:54.510Z,22.73
2016-12-12T21:02:27.994Z,22.7
2016-12-12T21:03:01.475Z,22.75
2016-12-12T21:03:34.953Z,22.7
2016-12-12T21:04:08.422Z,22.75
2016-12-12T21:04:41.889Z,22.76
2016-12-12T21:05:15.364Z,22.65
2016-12-12T21:05:48.832Z,22.72
2016-12-12T21:06:22.298Z,22.76
2016-12-12T21:06:55.767Z,22.69
2016-12-12T21:07:29.254Z,22.66
2016-12-12T21:08:02.730Z,22.7
2016-12-12T21:08:36.200Z,22.69
2016-12-12T21:09:09.671Z,22.72
2016-12-12T21:09:43.148Z,22.7
2016-12-12T21:10:16.613Z,22.69
2016-12-12T21:10:50.093Z,22.73
2016-12-12T21:11:23.557Z,22.66
2016-12-12T21:11:57.034Z,22.72
2016-12-12T21:12:30.515Z,22.65
2016-12-12T21:13:03.991Z,22.69
2016-12-12T21:13:37.461Z,22.66
2016-12-12T21:14:10.927Z,22.69
2016-12-12T21:14:44.406Z,22.73
2016-12-12T21:15:17.870Z,22.72
2016-12-12T21:15:51.353Z,22.7
2016-12-12T21:16:24.816Z,22.63
2016-12-12T21:16:58.293Z,22.65
2016-12-12T21:17:31.776Z,22.72
2016-12-12T21:18:05.251Z,22.69
2016-12-12T21:18:38.722Z,22.59
2016-12-12T21:19:12.197Z,22.68
2016-12-12T21:19:45.667Z,22.6
2016-12-12T21:20:19.130Z,22.62
2016-12-12T21:20:52.603Z,22.6
2016-12-12T21:21:26.071Z,22.63
2016-12-12T21:21:59.551Z,22.73
2016-12-12T21:22:33.027Z,22.63
2016-12-12T21:23:06.495Z,22.73
2016-12-12T21:23:39.964Z,22.59
2016-12-12T21:24:13.442Z,22.65
2016-12-12T21:24:46.905Z,22.68
2016-12-12T21:25:20.379Z,22.68
2016-12-12T21:25:53.848Z,22.62
2016-12-12T21:26:27.323Z,22.66
2016-12-12T21:27:00.801Z,22.6
2016-12-12T21:27:34.272Z,22.65
2016-12-12T21:28:07.738Z,22.66
2016-12-12T21:28:41.215Z,22.63
2016-12-12T21:29:14.681Z,22.66
2016-12-12T21:29:48.155Z,22.63
2016-12-12T21:30:21.624Z,22.65
2016-12-12T21:30:55.100Z,22.66
2016-12-12T21:31:28.578Z,22.62
2016-12-12T21:32:02.048Z,22.65
2016-12-12T21:32:35.517Z,22.66
2016-12-12T21:33:08.996Z,22.7
2016-12-12T21:33:42.458Z,22.62
2016-12-12T21:34:15.931Z,22.68
2016-12-12T21:34:49.400Z,22.6
2016-12-12T21:35:22.879Z,22.62
2016-12-12T21:35:56.354Z,22.63
2016-12-12T21:36:29.823Z,22.65
2016-12-12T21:37:03.295Z,22.62
2016-12-12T21:37:36.770Z,22.62
2016-12-12T21:38:10.233Z,22.59
2016-12-12T21:38:43.708Z,22.57
2016-12-12T21:39:17.176Z,22.62
2016-12-12T21:39:50.656Z,22.62
2016-12-12T21:40:24.140Z,22.63
2016-12-12T21:40:57.615Z,22.66
2016-12-12T21:41:31.083Z,22.59
2016-12-12T21:42:04.550Z,22.63
2016-12-12T21:42:38.029Z,22.62
2016-12-12T21:43:11.494Z,22.59
2016-12-12T21:43:44.966Z,22.53
2016-12-12T21:44:18.439Z,22.62
2016-12-12T21:44:51.915Z,22.53
2016-12-12T21:45:25.391Z,22.62
2016-12-12T21:45:58.859Z,22.65
2016-12-12T21:46:32.329Z,22.63
2016-12-12T21:47:05.804Z,22.62
2016-12-12T21:47:39.269Z,22.59
2016-12-12T21:48:12.744Z,22.59
2016-12-12T21:48:46.210Z,22.62
2016-12-12T21:49:19.693Z,22.62
2016-12-12T21:49:53.175Z,22.63
2016-12-12T21:50:26.652Z,22.63
2016-12-12T21:51:00.122Z,22.51
2016-12-12T21:51:33.595Z,22.65
2016-12-12T21:52:07.068Z,22.62
2016-12-12T21:52:40.535Z,22.63
2016-12-12T21:53:14.004Z,22.62
2016-12-12T21:53:47.473Z,22.55
2016-12-12T21:54:20.949Z,22.51
2016-12-12T21:54:54.435Z,22.54
2016-12-12T21:55:27.910Z,22.5
2016-12-12T21:56:01.382Z,22.57
2016-12-12T21:56:34.849Z,22.63
2016-12-12T21:57:08.329Z,22.51
2016-12-12T21:57:41.791Z,22.53
2016-12-12T21:58:15.266Z,22.51
2016-12-12T21:58:48.736Z,22.51
2016-12-12T21:59:22.214Z,22.54
2016-12-12T21:59:55.698Z,22.54
2016-12-12T22:00:29.174Z,22.51
2016-12-12T22:01:02.643Z,22.48
2016-12-12T22:01:36.108Z,22.6
2016-12-12T22:02:09.585Z,22.55
2016-12-12T22:02:43.052Z,22.53
2016-12-12T22:03:16.516Z,22.54
2016-12-12T22:03:49.992Z,22.54
2016-12-12T22:04:23.473Z,22.57
2016-12-12T22:04:56.956Z,22.53
2016-12-12T22:05:30.442Z,22.54
2016-12-12T22:06:03.918Z,22.5
2016-12-12T22:06:37.387Z,22.59
2016-12-12T22:07:10.855Z,22.53
2016-12-12T22:07:44.330Z,22.5
2016-12-12T22:08:17.798Z,22.55
2016-12-12T22:08:51.261Z,22.47
2016-12-12T22:09:24.741Z,22.54
2016-12-12T22:09:58.217Z,22.55
2016-12-12T22:10:31.695Z,22.54
2016-12-12T22:11:05.166Z,22.47
2016-12-12T22:11:38.635Z,22.55
2016-12-12T22:12:12.113Z,22.53
2016-12-12T22:12:45.592Z,22.53
2016-12-12T22:13:19.059Z,22.47
2016-12-12T22:13:52.522Z,22.54
2016-12-12T22:14:26.000Z,22.55
2016-12-12T22:14:59.481Z,22.44
2016-12-12T22:16:29.422Z,22.5